createdAt,value
2022-09-18T00:01:10.632Z,1.03
2022-09-18T00:03:40.199Z,0.40
2022-09-18T00:06:10.604Z,0.80
2022-09-18T00:08:38.862Z,0.77
2022-09-18T00:11:17.942Z,0.50
2022-09-18T00:13:46.296Z,1.00
2022-09-18T00:16:16.379Z,1.10
2022-09-18T00:18:46.026Z,1.00
2022-09-18T00:21:16.057Z,0.70
2022-09-18T00:23:44.126Z,0.50
2022-09-18T00:26:13.024Z,0.60
2022-09-18T00:28:40.959Z,0.53
2022-09-18T00:31:11.338Z,0.60
2022-09-18T00:33:40.238Z,0.60
2022-09-18T00:36:11.475Z,0.80
2022-09-18T00:38:39.319Z,0.40
2022-09-18T00:41:09.890Z,0.57
2022-09-18T00:43:38.531Z,0.93
2022-09-18T00:46:09.239Z,0.50
2022-09-18T00:48:48.022Z,1.10
2022-09-18T00:51:18.880Z,0.70
2022-09-18T00:53:55.823Z,0.60
2022-09-18T00:56:23.930Z,0.50
2022-09-18T00:58:51.844Z,0.40
2022-09-18T01:01:19.644Z,0.50
2022-09-18T01:03:47.527Z,0.50
2022-09-18T01:06:24.003Z,0.53
2022-09-18T01:09:01.382Z,0.50
2022-09-18T01:11:37.599Z,0.50
2022-09-18T01:14:20.074Z,0.67
2022-09-18T01:16:57.449Z,0.80
2022-09-18T01:19:58.566Z,0.70
2022-09-18T01:22:41.454Z,0.80
2022-09-18T01:25:19.348Z,1.20
2022-09-18T01:28:08.525Z,0.73
2022-09-18T01:30:42.251Z,0.97
2022-09-18T01:33:18.023Z,0.70
2022-09-18T01:35:50.949Z,0.60
2022-09-18T01:38:22.648Z,0.60
2022-09-18T01:40:54.321Z,0.40
2022-09-18T01:43:28.048Z,0.47
2022-09-18T01:45:59.356Z,0.63
2022-09-18T01:48:34.865Z,0.80
2022-09-18T01:51:10.760Z,0.83
2022-09-18T01:53:43.154Z,0.50
2022-09-18T01:56:16.668Z,0.50
2022-09-18T01:58:49.415Z,0.50
2022-09-18T02:01:23.014Z,0.70
2022-09-18T02:03:57.372Z,0.60
2022-09-18T02:06:30.502Z,0.53
2022-09-18T02:09:02.121Z,0.53
2022-09-18T02:11:32.761Z,0.60
2022-09-18T02:14:09.535Z,0.70
2022-09-18T02:17:03.588Z,0.60
2022-09-18T02:19:38.052Z,0.63
2022-09-18T02:22:10.533Z,0.90
2022-09-18T02:24:42.881Z,0.70
2022-09-18T02:27:14.275Z,0.90
2022-09-18T02:29:44.347Z,1.00
2022-09-18T02:32:12.823Z,0.67
2022-09-18T02:34:42.096Z,0.77
2022-09-18T02:37:24.790Z,1.20
2022-09-18T02:40:05.096Z,0.80
2022-09-18T02:42:41.803Z,0.60
2022-09-18T02:45:18.894Z,0.60
2022-09-18T02:48:00.391Z,0.77
2022-09-18T02:50:33.749Z,0.63
2022-09-18T02:53:08.833Z,1.03
2022-09-18T02:55:44.728Z,0.83
2022-09-18T02:58:18.508Z,0.70
2022-09-18T03:00:52.675Z,0.87
2022-09-18T03:03:28.031Z,0.70
2022-09-18T03:06:03.331Z,1.10
2022-09-18T03:08:34.188Z,0.90
2022-09-18T03:11:01.927Z,1.57
2022-09-18T03:13:30.243Z,0.80
2022-09-18T03:15:59.419Z,1.30
2022-09-18T03:18:27.360Z,1.10
2022-09-18T03:20:57.288Z,1.00
2022-09-18T03:23:24.966Z,1.07
2022-09-18T03:25:59.396Z,0.90
2022-09-18T03:28:27.102Z,0.80
2022-09-18T03:30:54.901Z,0.80
2022-09-18T03:33:24.066Z,1.00
2022-09-18T03:35:52.946Z,0.70
2022-09-18T03:38:20.826Z,0.87
2022-09-18T03:40:50.559Z,0.63
2022-09-18T03:43:18.305Z,0.90
2022-09-18T03:45:47.377Z,1.13
2022-09-18T03:48:18.000Z,0.80
2022-09-18T03:50:48.928Z,1.07
2022-09-18T03:53:17.086Z,0.80
2022-09-18T03:55:50.180Z,1.13
2022-09-18T03:58:36.253Z,0.50
2022-09-18T04:01:22.634Z,0.70
2022-09-18T04:04:29.094Z,0.83
2022-09-18T04:07:24.867Z,1.00
2022-09-18T04:10:11.213Z,0.50
2022-09-18T04:12:40.448Z,1.10
2022-09-18T04:15:17.380Z,0.70
2022-09-18T04:17:45.119Z,0.90
2022-09-18T04:20:13.103Z,0.93
2022-09-18T04:22:44.357Z,0.83
2022-09-18T04:25:12.182Z,0.77
2022-09-18T04:27:40.532Z,0.43
2022-09-18T04:30:10.152Z,1.00
2022-09-18T04:32:40.781Z,0.70
2022-09-18T04:35:09.088Z,0.70
2022-09-18T04:37:37.400Z,1.47
2022-09-18T04:40:07.681Z,0.63
2022-09-18T04:42:35.450Z,0.67
2022-09-18T04:45:03.419Z,0.60
2022-09-18T04:47:31.587Z,0.60
2022-09-18T04:49:59.279Z,0.90
2022-09-18T04:52:30.017Z,0.90
2022-09-18T04:54:57.969Z,0.70
2022-09-18T04:57:27.255Z,1.20
2022-09-18T04:59:55.044Z,0.70
2022-09-18T05:02:24.790Z,1.20
2022-09-18T05:04:54.074Z,1.30
2022-09-18T05:07:32.219Z,1.33
2022-09-18T05:10:00.347Z,0.70
2022-09-18T05:12:32.278Z,1.30
2022-09-18T05:15:00.080Z,1.20
2022-09-18T05:17:28.906Z,0.80
2022-09-18T05:20:01.695Z,0.70
2022-09-18T05:22:36.801Z,0.67
2022-09-18T05:25:09.891Z,0.63
2022-09-18T05:27:39.333Z,0.80
2022-09-18T05:30:09.830Z,1.17
2022-09-18T05:33:08.114Z,1.03
2022-09-18T05:35:40.760Z,0.60
2022-09-18T05:38:09.196Z,0.73
2022-09-18T05:40:39.998Z,0.93
2022-09-18T05:43:11.160Z,0.80
2022-09-18T05:45:39.375Z,1.30
2022-09-18T05:48:16.268Z,0.83
2022-09-18T05:50:46.946Z,0.97
2022-09-18T05:53:18.604Z,0.90
2022-09-18T05:55:55.234Z,1.00
2022-09-18T05:58:24.676Z,0.97
2022-09-18T06:00:58.664Z,0.80
2022-09-18T06:03:33.520Z,1.13
2022-09-18T06:06:02.160Z,1.03
2022-09-18T06:08:29.962Z,1.00
2022-09-18T06:11:01.445Z,1.03
2022-09-18T06:13:33.168Z,1.30
2022-09-18T06:16:01.149Z,1.67
2022-09-18T06:18:40.271Z,1.23
2022-09-18T06:21:08.917Z,1.40
2022-09-18T06:23:37.203Z,1.20
2022-09-18T06:26:14.975Z,1.87
2022-09-18T06:28:44.780Z,1.07
2022-09-18T06:31:12.565Z,1.33
2022-09-18T06:33:51.682Z,1.03
2022-09-18T06:36:20.207Z,1.00
2022-09-18T06:39:00.425Z,0.97
2022-09-18T06:41:28.535Z,2.00
2022-09-18T06:43:58.163Z,0.93
2022-09-18T06:46:44.903Z,1.33
2022-09-18T06:49:22.715Z,0.87
2022-09-18T06:51:50.502Z,1.23
2022-09-18T06:54:18.750Z,1.20
2022-09-18T06:56:49.254Z,1.77
2022-09-18T06:59:22.649Z,0.90
2022-09-18T07:01:52.788Z,0.60
2022-09-18T07:04:42.768Z,1.00
2022-09-18T07:07:11.424Z,0.97
2022-09-18T07:09:39.209Z,1.07
2022-09-18T07:12:15.523Z,1.43
2022-09-18T07:14:49.722Z,0.83
2022-09-18T07:17:19.214Z,1.20
2022-09-18T07:19:53.658Z,1.10
2022-09-18T07:22:26.734Z,0.97
2022-09-18T07:24:58.133Z,1.07
2022-09-18T07:27:25.957Z,1.20
2022-09-18T07:29:57.067Z,0.97
2022-09-18T07:32:25.157Z,0.90
2022-09-18T07:34:53.481Z,1.10
2022-09-18T07:37:26.955Z,0.90
2022-09-18T07:40:12.561Z,1.03
2022-09-18T07:43:08.745Z,1.20
2022-09-18T07:45:40.888Z,0.83
2022-09-18T07:48:08.831Z,0.83
2022-09-18T07:50:42.973Z,1.23
2022-09-18T07:53:11.480Z,1.47
2022-09-18T07:55:45.258Z,1.00
2022-09-18T07:58:14.919Z,1.30
2022-09-18T08:01:07.269Z,1.50
2022-09-18T08:03:43.882Z,0.80
2022-09-18T08:06:11.771Z,1.23
2022-09-18T08:08:54.322Z,1.00
2022-09-18T08:11:26.132Z,0.97
2022-09-18T08:14:04.430Z,1.40
2022-09-18T08:16:36.139Z,0.73
2022-09-18T08:19:30.947Z,0.90
2022-09-18T08:22:10.236Z,1.07
2022-09-18T08:24:43.591Z,2.00
2022-09-18T08:27:11.264Z,1.00
2022-09-18T08:29:41.174Z,1.37
2022-09-18T08:32:12.607Z,0.70
2022-09-18T08:34:40.323Z,1.00
2022-09-18T08:37:24.535Z,1.60
2022-09-18T08:40:11.619Z,1.47
2022-09-18T08:42:57.974Z,1.13
2022-09-18T08:45:40.971Z,1.10
2022-09-18T08:48:16.622Z,1.07
2022-09-18T08:50:57.809Z,1.17
2022-09-18T08:53:32.029Z,0.90
2022-09-18T08:56:23.204Z,1.70
2022-09-18T08:59:17.125Z,0.87
2022-09-18T09:01:56.492Z,1.67
2022-09-18T09:04:28.708Z,0.80
2022-09-18T09:07:10.021Z,1.30
2022-09-18T09:09:54.042Z,1.17
2022-09-18T09:12:34.479Z,0.93
2022-09-18T09:15:21.635Z,1.40
2022-09-18T09:17:59.654Z,1.10
2022-09-18T09:20:41.428Z,0.93
2022-09-18T09:23:19.187Z,1.03
2022-09-18T09:26:00.859Z,1.20
2022-09-18T09:28:56.505Z,1.20
2022-09-18T09:31:51.892Z,0.83
2022-09-18T09:34:47.757Z,1.13
2022-09-18T09:37:45.629Z,1.23
2022-09-18T09:40:22.447Z,1.17
2022-09-18T09:42:56.246Z,1.63
2022-09-18T09:45:29.066Z,0.90
2022-09-18T09:48:06.656Z,1.10
2022-09-18T09:50:42.681Z,1.13
2022-09-18T09:53:13.715Z,0.87
2022-09-18T09:55:51.789Z,0.93
2022-09-18T09:58:33.779Z,0.40
2022-09-18T10:01:10.218Z,0.97
2022-09-18T10:03:49.020Z,1.37
2022-09-18T10:06:40.162Z,1.27
2022-09-18T10:09:20.840Z,0.87
2022-09-18T10:11:57.470Z,0.70
2022-09-18T10:14:28.924Z,1.17
2022-09-18T10:16:58.994Z,1.00
2022-09-18T10:19:34.662Z,1.07
2022-09-18T10:22:07.414Z,1.20
2022-09-18T10:24:46.938Z,0.70
2022-09-18T10:27:17.321Z,0.70
2022-09-18T10:29:46.641Z,0.77
2022-09-18T10:32:35.247Z,0.80
2022-09-18T10:35:42.247Z,1.00
2022-09-18T10:38:30.698Z,0.90
2022-09-18T10:41:34.022Z,0.83
2022-09-18T10:44:22.412Z,0.60
2022-09-18T10:47:00.221Z,0.63
2022-09-18T10:49:33.031Z,0.50
2022-09-18T10:52:24.289Z,1.33
2022-09-18T10:55:02.819Z,0.90
2022-09-18T10:57:35.041Z,0.90
2022-09-18T11:00:33.938Z,1.00
2022-09-18T11:03:16.606Z,0.50
2022-09-18T11:05:51.779Z,0.70
2022-09-18T11:08:22.078Z,2.20
2022-09-18T11:10:52.195Z,0.90
2022-09-18T11:13:25.326Z,0.50
2022-09-18T11:15:56.264Z,1.07
2022-09-18T11:18:25.665Z,0.73
2022-09-18T11:20:55.021Z,2.10
2022-09-18T11:23:29.023Z,2.00
2022-09-18T11:26:12.783Z,0.67
2022-09-18T11:28:42.004Z,0.70
2022-09-18T11:31:16.187Z,0.70
2022-09-18T11:33:49.254Z,0.93
2022-09-18T11:36:25.672Z,0.80
2022-09-18T11:38:55.964Z,0.70
2022-09-18T11:41:26.422Z,0.60
2022-09-18T11:44:02.777Z,1.07
2022-09-18T11:46:43.296Z,1.20
2022-09-18T11:49:15.985Z,0.60
2022-09-18T11:51:48.640Z,0.70
2022-09-18T11:54:26.621Z,1.13
2022-09-18T11:56:59.369Z,0.80
2022-09-18T11:59:36.092Z,0.67
2022-09-18T12:02:15.680Z,1.17
2022-09-18T12:04:49.400Z,0.70
2022-09-18T12:07:38.513Z,1.67
2022-09-18T12:10:16.212Z,0.70
2022-09-18T12:12:50.526Z,0.77
2022-09-18T12:15:23.070Z,1.03
2022-09-18T12:17:56.622Z,0.63
2022-09-18T12:20:27.922Z,1.03
2022-09-18T12:22:57.775Z,1.33
2022-09-18T12:25:36.749Z,0.50
2022-09-18T12:28:32.119Z,0.70
2022-09-18T12:31:11.601Z,1.00
2022-09-18T12:33:47.477Z,1.67
2022-09-18T12:36:36.664Z,1.20
2022-09-18T12:39:20.355Z,1.80
2022-09-18T12:41:58.410Z,1.47
2022-09-18T12:44:55.440Z,2.13
2022-09-18T12:47:43.749Z,1.03
2022-09-18T12:50:33.104Z,1.03
2022-09-18T12:53:14.785Z,1.30
2022-09-18T12:56:07.792Z,1.27
2022-09-18T12:59:15.173Z,0.70
2022-09-18T13:01:49.346Z,0.97
2022-09-18T13:04:30.351Z,0.90
2022-09-18T13:07:04.012Z,0.60
2022-09-18T13:09:35.433Z,0.50
2022-09-18T13:12:08.682Z,0.80
2022-09-18T13:14:41.838Z,0.53
2022-09-18T13:17:16.309Z,0.80
2022-09-18T13:19:53.236Z,0.87
2022-09-18T13:22:23.206Z,2.30
2022-09-18T13:24:55.146Z,1.27
2022-09-18T13:27:25.401Z,0.90
2022-09-18T13:29:59.098Z,0.80
2022-09-18T13:32:39.585Z,1.07
2022-09-18T13:35:20.739Z,0.80
2022-09-18T13:37:49.817Z,0.70
2022-09-18T13:40:33.366Z,0.57
2022-09-18T13:43:32.548Z,0.73
2022-09-18T13:46:06.627Z,0.93
2022-09-18T13:48:42.240Z,1.20
2022-09-18T13:51:20.115Z,2.00
2022-09-18T13:53:48.059Z,0.77
2022-09-18T13:56:17.342Z,1.20
2022-09-18T13:58:55.750Z,0.80
2022-09-18T14:01:57.153Z,0.80
2022-09-18T14:04:50.828Z,1.10
2022-09-18T14:07:56.104Z,1.27
2022-09-18T14:10:31.697Z,0.70
2022-09-18T14:13:23.768Z,0.80
2022-09-18T14:15:54.818Z,0.70
2022-09-18T14:18:27.123Z,0.80
2022-09-18T14:20:59.225Z,0.80
2022-09-18T14:24:08.737Z,1.37
2022-09-18T14:26:59.581Z,1.03
2022-09-18T14:29:32.337Z,0.87
2022-09-18T14:32:02.338Z,0.90
2022-09-18T14:34:39.611Z,0.63
2022-09-18T14:37:28.126Z,0.60
2022-09-18T14:39:57.042Z,0.90
2022-09-18T14:42:33.275Z,0.80
2022-09-18T14:45:09.722Z,1.07
2022-09-18T14:47:37.979Z,0.70
2022-09-18T14:50:23.530Z,0.67
2022-09-18T14:52:51.510Z,0.30
2022-09-18T14:55:22.686Z,0.50
2022-09-18T14:57:55.723Z,1.90
2022-09-18T15:00:26.906Z,0.83
2022-09-18T15:02:58.531Z,0.80
2022-09-18T15:05:28.274Z,1.00
2022-09-18T15:08:03.041Z,1.80
2022-09-18T15:10:34.566Z,1.00
2022-09-18T15:13:07.166Z,1.50
2022-09-18T15:15:38.210Z,0.47
2022-09-18T15:18:19.392Z,0.70
2022-09-18T15:20:51.647Z,0.40
2022-09-18T15:23:21.617Z,0.70
2022-09-18T15:25:53.084Z,0.67
2022-09-18T15:28:24.955Z,0.93
2022-09-18T15:30:57.285Z,0.47
2022-09-18T15:33:27.358Z,2.40
2022-09-18T15:35:57.440Z,1.00
2022-09-18T15:38:27.666Z,0.60
2022-09-18T15:40:55.788Z,0.40
2022-09-18T15:43:43.711Z,0.83
2022-09-18T15:46:13.096Z,1.10
2022-09-18T15:48:45.164Z,0.50
2022-09-18T15:51:16.794Z,0.90
2022-09-18T15:54:03.542Z,0.90
2022-09-18T15:56:35.054Z,1.00
2022-09-18T15:59:06.440Z,0.63
2022-09-18T16:01:36.902Z,0.73
2022-09-18T16:04:24.008Z,0.80
2022-09-18T16:07:00.287Z,1.10
2022-09-18T16:09:35.863Z,1.17
2022-09-18T16:12:34.319Z,1.00
2022-09-18T16:15:15.889Z,1.07
2022-09-18T16:17:55.304Z,1.10
2022-09-18T16:20:30.058Z,0.90
2022-09-18T16:23:05.436Z,0.67
2022-09-18T16:25:37.361Z,1.13
2022-09-18T16:28:20.603Z,1.00
2022-09-18T16:30:49.584Z,1.37
2022-09-18T16:33:20.368Z,1.50
2022-09-18T16:35:54.159Z,1.40
2022-09-18T16:38:22.103Z,1.17
2022-09-18T16:40:49.791Z,1.67
2022-09-18T16:43:17.448Z,1.23
2022-09-18T16:45:45.573Z,1.10
2022-09-18T16:48:15.083Z,1.40
2022-09-18T16:50:43.762Z,1.43
2022-09-18T16:53:11.690Z,1.33
2022-09-18T16:55:44.099Z,2.47
2022-09-18T16:58:12.839Z,1.83
2022-09-18T17:00:40.665Z,2.03
2022-09-18T17:03:08.887Z,1.50
2022-09-18T17:05:38.015Z,1.43
2022-09-18T17:08:05.816Z,1.90
2022-09-18T17:10:33.817Z,2.47
2022-09-18T17:13:01.553Z,1.87
2022-09-18T17:15:29.349Z,2.30
2022-09-18T17:17:57.374Z,2.03
2022-09-18T17:20:25.088Z,2.30
2022-09-18T17:22:54.170Z,1.97
2022-09-18T17:25:21.939Z,1.80
2022-09-18T17:27:50.928Z,2.10
2022-09-18T17:30:18.789Z,2.37
2022-09-18T17:32:48.707Z,2.47
2022-09-18T17:35:16.553Z,2.40
2022-09-18T17:37:44.771Z,3.50
2022-09-18T17:40:13.924Z,3.57
2022-09-18T17:42:41.642Z,2.27
2022-09-18T17:45:10.164Z,4.50
2022-09-18T17:47:37.828Z,3.83
2022-09-18T17:50:07.442Z,5.10
2022-09-18T17:52:36.113Z,3.50
2022-09-18T17:55:05.075Z,3.10
2022-09-18T17:57:36.319Z,2.23
2022-09-18T18:00:05.587Z,1.90
2022-09-18T18:02:39.471Z,1.53
2022-09-18T18:05:07.661Z,1.93
2022-09-18T18:07:35.361Z,2.03
2022-09-18T18:10:03.848Z,1.60
2022-09-18T18:12:32.106Z,1.63
2022-09-18T18:15:01.232Z,1.47
2022-09-18T18:17:29.696Z,1.60
2022-09-18T18:19:57.519Z,1.47
2022-09-18T18:22:25.680Z,1.57
2022-09-18T18:24:53.665Z,1.83
2022-09-18T18:27:21.539Z,1.43
2022-09-18T18:29:50.609Z,1.70
2022-09-18T18:32:19.632Z,1.37
2022-09-18T18:34:48.480Z,1.60
2022-09-18T18:37:17.010Z,1.50
2022-09-18T18:39:44.871Z,1.03
2022-09-18T18:42:12.729Z,1.27
2022-09-18T18:44:41.707Z,1.60
2022-09-18T18:47:09.458Z,1.43
2022-09-18T18:49:41.252Z,1.23
2022-09-18T18:52:09.540Z,0.90
2022-09-18T18:54:37.752Z,1.13
2022-09-18T18:57:05.845Z,1.53
2022-09-18T18:59:33.562Z,1.20
2022-09-18T19:02:02.265Z,1.20
2022-09-18T19:04:30.659Z,1.23
2022-09-18T19:06:59.690Z,1.37
2022-09-18T19:09:30.484Z,1.23
2022-09-18T19:11:58.260Z,1.30
2022-09-18T19:14:28.960Z,0.90
2022-09-18T19:16:56.895Z,0.97
2022-09-18T19:19:27.941Z,1.23
2022-09-18T19:21:59.366Z,1.00
2022-09-18T19:24:29.980Z,0.90
2022-09-18T19:26:59.168Z,1.50
2022-09-18T19:29:27.350Z,0.70
2022-09-18T19:31:55.312Z,1.20
2022-09-18T19:34:23.878Z,2.40
2022-09-18T19:36:53.552Z,1.00
2022-09-18T19:39:24.563Z,0.93
2022-09-18T19:41:59.110Z,1.00
2022-09-18T19:44:32.871Z,1.57
2022-09-18T19:47:03.803Z,1.10
2022-09-18T19:49:34.191Z,1.60
2022-09-18T19:52:03.266Z,1.10
2022-09-18T19:54:32.558Z,1.27
2022-09-18T19:57:01.656Z,1.17
2022-09-18T19:59:29.475Z,1.80
2022-09-18T20:01:57.769Z,2.00
2022-09-18T20:04:25.824Z,1.40
2022-09-18T20:06:54.153Z,1.20
2022-09-18T20:09:22.462Z,1.30
2022-09-18T20:11:55.430Z,1.27
2022-09-18T20:14:25.391Z,1.80
2022-09-18T20:16:55.009Z,1.10
2022-09-18T20:19:24.381Z,1.03
2022-09-18T20:21:53.389Z,1.40
2022-09-18T20:24:21.804Z,0.90
2022-09-18T20:26:51.101Z,1.40
2022-09-18T20:29:18.912Z,1.47
2022-09-18T20:31:50.025Z,1.63
2022-09-18T20:34:22.297Z,1.00
2022-09-18T20:36:50.128Z,0.90
2022-09-18T20:39:18.306Z,1.17
2022-09-18T20:41:47.380Z,1.33
2022-09-18T20:44:15.449Z,1.00
2022-09-18T20:46:43.441Z,1.20
2022-09-18T20:49:17.382Z,0.87
2022-09-18T20:51:45.990Z,1.00
2022-09-18T20:54:15.160Z,1.13
2022-09-18T20:56:44.330Z,0.80
2022-09-18T20:59:13.752Z,0.80
2022-09-18T21:01:42.054Z,1.17
2022-09-18T21:04:17.415Z,0.97
2022-09-18T21:06:48.672Z,0.60
2022-09-18T21:15:15.142Z,0.67
2022-09-18T21:17:43.545Z,0.97
2022-09-18T21:20:12.138Z,0.60
2022-09-18T21:22:55.088Z,0.70
2022-09-18T21:25:24.659Z,0.93
2022-09-18T21:27:54.651Z,0.70
2022-09-18T21:30:23.932Z,0.87
2022-09-18T21:32:55.405Z,0.63
2022-09-18T21:35:23.432Z,1.37
2022-09-18T21:37:55.112Z,0.60
2022-09-18T21:40:24.086Z,0.70
2022-09-18T21:42:52.168Z,0.50
2022-09-18T21:45:20.670Z,0.53
2022-09-18T21:47:50.531Z,0.77
2022-09-18T21:50:19.134Z,0.87
2022-09-18T21:52:46.844Z,0.97
2022-09-18T21:55:15.956Z,0.70
2022-09-18T21:57:43.668Z,0.73
2022-09-18T22:00:12.453Z,0.47
2022-09-18T22:02:40.996Z,0.63
2022-09-18T22:05:11.688Z,0.70
2022-09-18T22:07:39.407Z,0.80
2022-09-18T22:10:08.353Z,1.03
2022-09-18T22:12:38.974Z,0.63
2022-09-18T22:15:07.471Z,0.87
2022-09-18T22:17:35.258Z,0.60
2022-09-18T22:20:03.306Z,0.40
2022-09-18T22:22:31.024Z,0.67
2022-09-18T22:25:09.413Z,0.60
2022-09-18T22:27:38.463Z,1.00
2022-09-18T22:30:07.156Z,1.00
2022-09-18T22:32:34.854Z,1.73
2022-09-18T22:35:02.887Z,0.60
2022-09-18T22:37:30.627Z,0.90
2022-09-18T22:39:58.508Z,0.77
2022-09-18T22:42:26.293Z,0.50
2022-09-18T22:44:55.571Z,1.00
2022-09-18T22:47:23.511Z,0.80
2022-09-18T22:49:51.871Z,1.00
2022-09-18T22:52:19.613Z,0.80
2022-09-18T22:54:47.528Z,0.60
2022-09-18T22:57:15.276Z,0.77
2022-09-18T22:59:43.026Z,0.80
2022-09-18T23:02:12.281Z,0.93
2022-09-18T23:04:40.943Z,0.60
2022-09-18T23:07:08.812Z,1.33
2022-09-18T23:09:36.569Z,1.30
2022-09-18T23:12:04.403Z,1.00
2022-09-18T23:14:32.288Z,0.70
2022-09-18T23:17:01.253Z,0.70
2022-09-18T23:19:32.341Z,0.50
2022-09-18T23:22:00.496Z,0.50
2022-09-18T23:24:28.418Z,1.00
2022-09-18T23:26:58.105Z,0.70
2022-09-18T23:29:27.822Z,0.80
2022-09-18T23:31:58.089Z,0.67
2022-09-18T23:34:29.430Z,0.60
2022-09-18T23:36:59.656Z,1.10
2022-09-18T23:39:29.601Z,0.80
2022-09-18T23:41:59.280Z,0.70
2022-09-18T23:44:30.080Z,0.57
2022-09-18T23:46:58.215Z,1.00
2022-09-18T23:49:25.980Z,0.80
2022-09-18T23:51:54.974Z,0.70
2022-09-18T23:54:25.761Z,0.90
2022-09-18T23:56:54.217Z,1.13
2022-09-18T23:59:23.806Z,0.97
